createdAt,value
2019-03-01T00:00:43.502Z,8.50
2019-03-01T00:03:13.181Z,8.72
2019-03-01T00:06:11.993Z,9.10
2019-03-01T00:09:12.183Z,9.24
2019-03-01T00:12:06.553Z,9.65
2019-03-01T00:15:03.570Z,9.86
2019-03-01T00:17:56.128Z,10.04
2019-03-01T00:21:12.823Z,9.94
2019-03-01T00:24:38.195Z,10.20
2019-03-01T00:27:50.355Z,10.29
2019-03-01T00:30:51.015Z,10.43
2019-03-01T00:34:02.042Z,10.91
2019-03-01T00:36:58.187Z,10.89
2019-03-01T00:39:50.450Z,10.81
2019-03-01T00:43:04.894Z,10.74
2019-03-01T00:45:34.766Z,10.93
2019-03-01T00:48:04.562Z,10.94
2019-03-01T00:50:34.275Z,11.00
2019-03-01T00:53:04.006Z,10.97
2019-03-01T00:55:33.716Z,10.71
2019-03-01T00:58:03.459Z,10.40
2019-03-01T01:00:39.724Z,10.18
2019-03-01T01:03:09.443Z,10.66
2019-03-01T01:05:39.185Z,11.11
2019-03-01T01:08:08.871Z,11.39
2019-03-01T01:10:38.555Z,11.38
2019-03-01T01:13:08.244Z,11.75
2019-03-01T01:15:37.934Z,12.26
2019-03-01T01:18:07.770Z,12.08
2019-03-01T01:20:37.483Z,12.00
2019-03-01T01:23:07.214Z,12.10
2019-03-01T01:25:36.888Z,11.98
2019-03-01T01:28:06.589Z,12.15
2019-03-01T01:30:36.301Z,12.16
2019-03-01T01:33:06.006Z,12.28
2019-03-01T01:35:35.757Z,12.40
2019-03-01T01:38:05.435Z,12.38
2019-03-01T01:40:35.173Z,12.65
2019-03-01T01:43:04.877Z,12.72
2019-03-01T01:45:34.608Z,12.63
2019-03-01T01:48:04.321Z,12.64
2019-03-01T01:50:34.040Z,12.73
2019-03-01T01:53:03.757Z,12.80
2019-03-01T01:55:33.458Z,12.71
2019-03-01T01:58:03.173Z,12.62
2019-03-01T02:00:32.868Z,12.65
2019-03-01T02:03:02.603Z,12.71
2019-03-01T02:05:32.310Z,12.98
2019-03-01T02:08:02.027Z,13.02
2019-03-01T02:10:31.709Z,12.93
2019-03-01T02:13:01.403Z,12.98
2019-03-01T02:15:31.113Z,13.07
2019-03-01T02:18:00.831Z,13.07
2019-03-01T02:20:30.516Z,13.08
2019-03-01T02:23:00.225Z,12.98
2019-03-01T02:25:29.922Z,12.99
2019-03-01T02:27:59.622Z,13.13
2019-03-01T02:30:29.555Z,13.02
2019-03-01T02:32:59.264Z,13.10
2019-03-01T02:35:29.368Z,13.00
2019-03-01T02:37:59.066Z,12.81
2019-03-01T02:40:28.781Z,12.67
2019-03-01T02:42:58.492Z,12.73
2019-03-01T02:45:28.278Z,12.70
2019-03-01T02:47:58.032Z,12.80
2019-03-01T02:50:27.744Z,12.74
2019-03-01T02:52:57.440Z,12.66
2019-03-01T02:55:27.151Z,12.54
2019-03-01T02:57:56.869Z,12.50
2019-03-01T03:00:28.157Z,12.55
2019-03-01T03:02:57.854Z,12.63
2019-03-01T03:05:27.646Z,12.57
2019-03-01T03:07:59.363Z,12.41
2019-03-01T03:10:29.064Z,12.22
2019-03-01T03:13:01.248Z,12.33
2019-03-01T03:15:36.592Z,12.41
2019-03-01T03:18:06.385Z,12.30
2019-03-01T03:20:36.130Z,12.27
2019-03-01T03:23:05.862Z,12.24
2019-03-01T03:25:35.644Z,12.26
2019-03-01T03:28:05.337Z,12.29
2019-03-01T03:30:35.086Z,12.28
2019-03-01T03:33:04.855Z,12.40
2019-03-01T03:35:34.718Z,12.40
2019-03-01T03:38:04.427Z,12.52
2019-03-01T03:40:34.133Z,12.43
2019-03-01T03:43:03.825Z,12.24
2019-03-01T03:45:33.529Z,12.25
2019-03-01T03:48:03.253Z,12.07
2019-03-01T03:50:32.997Z,12.02
2019-03-01T03:53:02.838Z,11.96
2019-03-01T03:55:32.526Z,12.22
2019-03-01T03:58:02.195Z,12.18
2019-03-01T04:00:31.895Z,12.18
2019-03-01T04:03:01.644Z,12.21
2019-03-01T04:05:31.364Z,12.21
2019-03-01T04:08:01.119Z,12.10
2019-03-01T04:10:30.901Z,12.12
2019-03-01T04:13:00.729Z,12.01
2019-03-01T04:15:30.447Z,11.89
2019-03-01T04:18:00.146Z,11.81
2019-03-01T04:20:29.882Z,11.91
2019-03-01T04:22:59.677Z,11.78
2019-03-01T04:25:29.471Z,11.90
2019-03-01T04:27:59.268Z,11.79
2019-03-01T04:30:29.000Z,11.71
2019-03-01T04:32:58.711Z,11.58
2019-03-01T04:35:28.469Z,11.58
2019-03-01T04:37:58.191Z,11.57
2019-03-01T04:40:28.003Z,11.51
2019-03-01T04:42:57.801Z,11.51
2019-03-01T04:45:27.548Z,11.45
2019-03-01T04:47:57.248Z,11.33
2019-03-01T04:50:26.958Z,11.33
2019-03-01T04:52:56.724Z,11.31
2019-03-01T04:55:26.993Z,11.46
2019-03-01T04:57:56.729Z,11.48
2019-03-01T05:00:26.637Z,11.54
2019-03-01T05:02:56.351Z,11.54
2019-03-01T05:05:26.049Z,11.49
2019-03-01T05:07:55.759Z,11.63
2019-03-01T05:10:25.534Z,11.70
2019-03-01T05:12:55.253Z,11.84
2019-03-01T05:15:24.958Z,11.82
2019-03-01T05:17:54.673Z,11.87
2019-03-01T05:20:24.395Z,11.98
2019-03-01T05:22:54.182Z,12.22
2019-03-01T05:25:23.858Z,12.54
2019-03-01T05:27:53.608Z,12.82
2019-03-01T05:30:23.335Z,12.93
2019-03-01T05:32:53.043Z,12.82
2019-03-01T05:35:22.849Z,12.79
2019-03-01T05:37:52.626Z,12.94
2019-03-01T05:40:22.347Z,13.13
2019-03-01T05:42:52.163Z,13.55
2019-03-01T05:45:23.264Z,13.95
2019-03-01T05:47:53.093Z,14.13
2019-03-01T05:50:22.805Z,14.19
2019-03-01T05:52:52.495Z,14.40
2019-03-01T05:55:22.220Z,14.22
2019-03-01T05:58:38.078Z,14.09
2019-03-01T06:01:35.329Z,14.10
2019-03-01T06:04:17.761Z,14.11
2019-03-01T06:07:31.644Z,14.31
2019-03-01T06:10:40.927Z,14.41
2019-03-01T06:13:49.761Z,14.46
2019-03-01T06:16:37.512Z,14.53
2019-03-01T06:19:35.676Z,14.60
2019-03-01T06:22:40.364Z,14.77
2019-03-01T06:25:26.007Z,14.87
2019-03-01T06:28:35.563Z,14.93
2019-03-01T06:32:07.067Z,14.95
2019-03-01T06:34:59.735Z,15.09
2019-03-01T06:38:13.189Z,15.34
2019-03-01T06:41:27.945Z,15.46
2019-03-01T06:44:20.903Z,15.54
2019-03-01T06:47:25.948Z,15.49
2019-03-01T06:50:08.256Z,15.39
2019-03-01T06:52:37.966Z,15.43
2019-03-01T06:55:09.677Z,15.50
2019-03-01T06:57:39.413Z,15.62
2019-03-01T07:00:10.088Z,15.79
2019-03-01T07:02:43.979Z,15.85
2019-03-01T07:05:13.746Z,15.99
2019-03-01T07:07:43.604Z,16.64
2019-03-01T07:10:13.338Z,17.05
2019-03-01T07:12:43.029Z,17.06
2019-03-01T07:15:13.005Z,17.41
2019-03-01T07:17:42.691Z,17.58
2019-03-01T07:20:12.728Z,17.45
2019-03-01T07:22:42.435Z,17.30
2019-03-01T07:25:12.251Z,17.37
2019-03-01T07:27:42.036Z,17.32
2019-03-01T07:30:11.805Z,17.41
2019-03-01T07:32:41.523Z,17.72
2019-03-01T07:35:11.249Z,18.01
2019-03-01T07:37:41.007Z,17.60
2019-03-01T07:40:10.753Z,17.48
2019-03-01T07:42:40.557Z,17.44
2019-03-01T07:45:10.766Z,17.17
2019-03-01T07:47:40.472Z,16.83
2019-03-01T07:50:10.798Z,16.78
2019-03-01T07:52:40.511Z,16.68
2019-03-01T07:55:10.228Z,16.64
2019-03-01T07:57:40.015Z,16.80
2019-03-01T08:00:14.177Z,16.65
2019-03-01T08:02:45.615Z,16.75
2019-03-01T08:05:16.607Z,16.86
2019-03-01T08:07:55.723Z,16.83
2019-03-01T08:10:22.379Z,16.82
2019-03-01T08:12:49.657Z,16.92
2019-03-01T08:15:19.356Z,17.03
2019-03-01T08:17:49.089Z,17.21
2019-03-01T08:20:18.822Z,17.16
2019-03-01T08:22:49.655Z,17.42
2019-03-01T08:25:23.435Z,17.63
2019-03-01T08:27:51.285Z,17.73
2019-03-01T08:30:23.290Z,17.68
2019-03-01T08:32:53.172Z,17.73
2019-03-01T08:35:25.333Z,17.90
2019-03-01T08:37:54.436Z,17.77
2019-03-01T08:40:24.246Z,17.93
2019-03-01T08:42:54.063Z,18.00
2019-03-01T08:45:23.976Z,17.89
2019-03-01T08:47:55.509Z,18.00
2019-03-01T08:50:25.125Z,17.95
2019-03-01T08:52:54.839Z,18.06
2019-03-01T08:55:24.908Z,18.17
2019-03-01T08:57:54.630Z,18.10
2019-03-01T09:00:28.132Z,18.09
2019-03-01T09:03:00.146Z,18.15
2019-03-01T09:05:29.946Z,18.39
2019-03-01T09:07:59.675Z,18.50
2019-03-01T09:10:32.748Z,18.46
2019-03-01T09:13:00.819Z,18.63
2019-03-01T09:15:30.555Z,18.61
2019-03-01T09:18:00.337Z,18.59
2019-03-01T09:20:32.541Z,18.70
2019-03-01T09:23:04.887Z,18.95
2019-03-01T09:25:33.179Z,19.27
2019-03-01T09:28:03.030Z,19.36
2019-03-01T09:30:32.767Z,19.50
2019-03-01T09:33:02.504Z,19.42
2019-03-01T09:35:54.205Z,19.46
2019-03-01T09:38:23.937Z,19.47
2019-03-01T09:40:53.771Z,19.77
2019-03-01T09:43:24.688Z,19.95
2019-03-01T09:45:54.988Z,20.26
2019-03-01T09:48:24.685Z,20.42
2019-03-01T09:50:54.517Z,20.55
2019-03-01T09:53:24.289Z,20.24
2019-03-01T09:55:54.118Z,20.51
2019-03-01T09:58:23.945Z,20.22
2019-03-01T10:00:58.409Z,20.20
2019-03-01T10:03:28.152Z,20.18
2019-03-01T10:05:57.898Z,20.56
2019-03-01T10:08:27.639Z,20.84
2019-03-01T10:10:57.383Z,20.65
2019-03-01T10:13:27.140Z,21.14
2019-03-01T10:15:56.838Z,21.38
2019-03-01T10:18:26.554Z,21.50
2019-03-01T10:20:56.347Z,21.39
2019-03-01T10:23:26.018Z,21.51
2019-03-01T10:25:55.669Z,21.43
2019-03-01T10:28:25.260Z,21.37
2019-03-01T10:30:54.843Z,21.38
2019-03-01T10:33:24.405Z,21.45
2019-03-01T10:35:53.970Z,21.60
2019-03-01T10:38:23.578Z,21.91
2019-03-01T10:40:53.192Z,21.95
2019-03-01T10:43:23.529Z,21.32
2019-03-01T10:45:53.347Z,21.15
2019-03-01T10:48:23.023Z,21.40
2019-03-01T10:50:52.818Z,21.99
2019-03-01T10:53:22.399Z,22.06
2019-03-01T10:55:52.801Z,21.84
2019-03-01T10:58:22.371Z,22.14
2019-03-01T11:00:51.948Z,21.59
2019-03-01T11:03:21.528Z,21.57
2019-03-01T11:05:52.967Z,22.19
2019-03-01T11:08:22.577Z,22.59
2019-03-01T11:10:52.220Z,22.85
2019-03-01T11:13:21.949Z,22.83
2019-03-01T11:15:52.098Z,23.04
2019-03-01T11:18:21.844Z,22.92
2019-03-01T11:20:51.585Z,23.07
2019-03-01T11:23:21.115Z,23.02
2019-03-01T11:25:50.764Z,23.22
2019-03-01T11:28:20.336Z,22.93
2019-03-01T11:30:50.049Z,22.38
2019-03-01T11:33:19.634Z,22.24
2019-03-01T11:35:49.195Z,22.60
2019-03-01T11:38:18.754Z,23.06
2019-03-01T11:40:48.407Z,23.04
2019-03-01T11:43:18.149Z,22.99
2019-03-01T11:45:47.834Z,23.37
2019-03-01T11:48:17.395Z,23.52
2019-03-01T11:50:46.936Z,23.33
2019-03-01T11:53:16.487Z,22.46
2019-03-01T11:55:46.100Z,21.84
2019-03-01T11:58:15.771Z,21.20
2019-03-01T12:00:52.108Z,20.36
2019-03-01T12:03:16.677Z,19.85
2019-03-01T12:05:46.237Z,19.45
2019-03-01T12:08:15.835Z,19.15
2019-03-01T12:10:45.363Z,19.15
2019-03-01T12:13:14.954Z,18.89
2019-03-01T12:15:44.542Z,18.70
2019-03-01T12:18:14.299Z,18.46
2019-03-01T12:20:43.865Z,18.31
2019-03-01T12:23:13.403Z,18.12
2019-03-01T12:25:42.978Z,18.01
2019-03-01T12:28:12.613Z,18.00
2019-03-01T12:30:42.151Z,18.06
2019-03-01T12:33:11.707Z,17.99
2019-03-01T12:35:41.391Z,17.90
2019-03-01T12:38:10.975Z,17.74
2019-03-01T12:40:40.732Z,17.60
2019-03-01T12:43:10.272Z,17.46
2019-03-01T12:45:39.845Z,17.34
2019-03-01T12:48:09.448Z,17.28
2019-03-01T12:50:39.047Z,17.23
2019-03-01T12:53:08.599Z,17.28
2019-03-01T12:55:38.209Z,17.46
2019-03-01T12:58:07.893Z,17.75
2019-03-01T13:00:37.612Z,17.94
2019-03-01T13:03:09.233Z,18.01
2019-03-01T13:05:38.429Z,18.12
2019-03-01T13:08:08.179Z,18.27
2019-03-01T13:10:40.378Z,18.37
2019-03-01T13:13:09.157Z,18.45
2019-03-01T13:15:38.863Z,18.53
2019-03-01T13:18:09.783Z,18.53
2019-03-01T13:20:39.904Z,18.51
2019-03-01T13:23:09.593Z,18.41
2019-03-01T13:25:39.122Z,18.43
2019-03-01T13:28:08.668Z,18.46
2019-03-01T13:30:38.249Z,18.48
2019-03-01T13:33:07.811Z,18.50
2019-03-01T13:35:37.388Z,18.49
2019-03-01T13:38:06.937Z,18.47
2019-03-01T13:40:36.513Z,18.43
2019-03-01T13:43:06.174Z,18.38
2019-03-01T13:45:35.847Z,18.35
2019-03-01T13:48:05.404Z,18.29
2019-03-01T13:50:35.094Z,18.21
2019-03-01T13:53:06.546Z,18.19
2019-03-01T13:55:36.222Z,18.16
2019-03-01T13:58:05.776Z,18.25
2019-03-01T14:00:35.441Z,18.17
2019-03-01T14:03:05.089Z,18.09
2019-03-01T14:05:34.801Z,18.02
2019-03-01T14:08:08.979Z,17.90
2019-03-01T14:10:38.565Z,17.78
2019-03-01T14:13:07.045Z,17.73
2019-03-01T14:15:38.259Z,17.69
2019-03-01T14:18:08.067Z,17.66
2019-03-01T14:20:37.671Z,17.60
2019-03-01T14:23:07.294Z,17.51
2019-03-01T14:25:38.594Z,17.45
2019-03-01T14:28:08.284Z,17.43
2019-03-01T14:30:37.821Z,17.34
2019-03-01T14:33:07.402Z,17.36
2019-03-01T14:35:37.061Z,17.37
2019-03-01T14:38:08.266Z,17.36
2019-03-01T14:40:38.009Z,17.29
2019-03-01T14:43:07.615Z,17.23
2019-03-01T14:45:37.198Z,17.21
2019-03-01T14:48:08.808Z,17.10
2019-03-01T14:50:38.219Z,17.08
2019-03-01T14:53:07.767Z,16.95
2019-03-01T14:55:40.484Z,16.94
2019-03-01T14:58:23.469Z,16.86
2019-03-01T15:01:03.075Z,16.87
2019-03-01T15:03:31.647Z,16.77
2019-03-01T15:06:01.362Z,16.68
2019-03-01T15:08:31.318Z,16.61
2019-03-01T15:11:04.348Z,16.58
2019-03-01T15:13:35.821Z,16.45
2019-03-01T15:16:06.072Z,16.45
2019-03-01T15:18:36.134Z,16.35
2019-03-01T15:21:06.666Z,16.28
2019-03-01T15:23:36.474Z,16.26
2019-03-01T15:26:06.232Z,16.13
2019-03-01T15:29:00.260Z,16.10
2019-03-01T15:31:29.813Z,15.95
2019-03-01T15:33:59.482Z,15.87
2019-03-01T15:36:29.101Z,15.76
2019-03-01T15:38:58.713Z,15.60
2019-03-01T15:41:28.283Z,15.59
2019-03-01T15:43:57.842Z,15.53
2019-03-01T15:46:27.509Z,15.42
2019-03-01T15:48:57.190Z,15.26
2019-03-01T15:51:27.301Z,15.13
2019-03-01T15:53:57.541Z,15.03
2019-03-01T15:56:28.350Z,14.92
2019-03-01T15:58:57.972Z,14.84
2019-03-01T16:01:27.577Z,14.79
2019-03-01T16:03:58.028Z,14.69
2019-03-01T16:06:27.610Z,14.63
2019-03-01T16:08:57.181Z,14.51
2019-03-01T16:11:27.226Z,14.39
2019-03-01T16:13:56.836Z,14.24
2019-03-01T16:16:26.586Z,14.21
2019-03-01T16:18:56.216Z,14.18
2019-03-01T16:21:26.002Z,14.14
2019-03-01T16:23:55.651Z,13.96
2019-03-01T16:26:29.889Z,13.89
2019-03-01T16:28:56.685Z,13.83
2019-03-01T16:31:29.031Z,13.71
2019-03-01T16:33:57.531Z,13.59
2019-03-01T16:36:31.949Z,13.50
2019-03-01T16:39:01.609Z,13.35
2019-03-01T16:41:31.221Z,13.30
2019-03-01T16:44:01.304Z,13.22
2019-03-01T16:46:32.228Z,13.31
2019-03-01T16:49:01.925Z,13.30
2019-03-01T16:51:31.600Z,13.22
2019-03-01T16:54:01.231Z,13.32
2019-03-01T16:56:30.936Z,13.31
2019-03-01T16:59:03.816Z,13.25
2019-03-01T17:01:31.805Z,13.32
2019-03-01T17:04:01.364Z,13.41
2019-03-01T17:06:31.029Z,13.53
2019-03-01T17:09:00.694Z,13.49
2019-03-01T17:11:30.406Z,13.46
2019-03-01T17:14:02.738Z,13.47
2019-03-01T17:16:31.551Z,13.44
2019-03-01T17:19:01.211Z,13.40
2019-03-01T17:21:30.783Z,13.31
2019-03-01T17:24:00.425Z,13.20
2019-03-01T17:26:30.810Z,13.24
2019-03-01T17:29:03.179Z,13.09
2019-03-01T17:31:31.922Z,12.94
2019-03-01T17:34:01.690Z,13.11
2019-03-01T17:36:31.260Z,13.05
2019-03-01T17:39:00.801Z,13.00
2019-03-01T17:41:30.429Z,12.88
2019-03-01T17:44:00.125Z,12.95
2019-03-01T17:46:32.665Z,12.86
2019-03-01T17:49:00.905Z,12.76
2019-03-01T17:51:30.588Z,12.78
2019-03-01T17:54:00.382Z,12.87
2019-03-01T17:56:29.996Z,12.87
2019-03-01T17:58:59.674Z,12.95
2019-03-01T18:01:29.306Z,12.97
2019-03-01T18:04:01.931Z,12.91
2019-03-01T18:06:30.144Z,12.88
2019-03-01T18:08:59.684Z,12.95
2019-03-01T18:11:29.240Z,12.96
2019-03-01T18:14:00.795Z,12.92
2019-03-01T18:16:30.718Z,12.86
2019-03-01T18:19:01.327Z,12.85
2019-03-01T18:21:30.938Z,12.91
2019-03-01T18:24:02.405Z,12.92
2019-03-01T18:26:31.768Z,13.00
2019-03-01T18:29:04.415Z,12.87
2019-03-01T18:31:34.625Z,12.86
2019-03-01T18:34:03.964Z,12.88
2019-03-01T18:36:33.523Z,12.91
2019-03-01T18:39:03.711Z,13.07
2019-03-01T18:41:34.731Z,13.01
2019-03-01T18:44:04.320Z,12.91
2019-03-01T18:46:33.940Z,13.02
2019-03-01T18:49:03.646Z,12.96
2019-03-01T18:51:33.277Z,12.90
2019-03-01T18:54:04.017Z,12.96
2019-03-01T18:56:34.325Z,12.87
2019-03-01T18:59:04.031Z,12.82
2019-03-01T19:01:33.567Z,12.75
2019-03-01T19:04:03.232Z,12.63
2019-03-01T19:06:32.847Z,12.64
2019-03-01T19:09:02.448Z,12.61
2019-03-01T19:11:34.727Z,12.60
2019-03-01T19:14:03.425Z,12.62
2019-03-01T19:16:33.051Z,12.53
2019-03-01T19:19:02.630Z,12.51
2019-03-01T19:21:32.397Z,12.40
2019-03-01T19:24:04.695Z,12.30
2019-03-01T19:26:33.824Z,12.33
2019-03-01T19:29:04.947Z,12.39
2019-03-01T19:31:34.679Z,12.42
2019-03-01T19:34:04.374Z,12.43
2019-03-01T19:36:35.576Z,12.39
2019-03-01T19:39:05.923Z,12.41
2019-03-01T19:41:35.624Z,12.28
2019-03-01T19:44:05.179Z,12.16
2019-03-01T19:46:35.737Z,11.98
2019-03-01T19:49:05.387Z,12.03
2019-03-01T19:51:37.519Z,12.06
2019-03-01T19:54:08.335Z,12.08
2019-03-01T19:56:38.081Z,12.06
2019-03-01T19:59:07.724Z,11.93
2019-03-01T20:01:37.376Z,12.05
2019-03-01T20:04:06.942Z,11.99
2019-03-01T20:06:39.736Z,11.86
2019-03-01T20:09:08.883Z,11.91
2019-03-01T20:11:39.363Z,11.92
2019-03-01T20:14:10.326Z,11.84
2019-03-01T20:16:40.024Z,11.77
2019-03-01T20:19:09.790Z,11.77
2019-03-01T20:21:41.347Z,11.93
2019-03-01T20:24:11.458Z,11.95
2019-03-01T20:26:41.067Z,11.95
2019-03-01T20:29:10.728Z,11.98
2019-03-01T20:31:41.992Z,11.88
2019-03-01T20:34:11.692Z,11.93
2019-03-01T20:36:41.858Z,11.92
2019-03-01T20:39:11.775Z,11.86
2019-03-01T20:41:46.330Z,11.76
2019-03-01T20:44:14.737Z,11.83
2019-03-01T20:46:45.506Z,11.78
2019-03-01T20:49:15.138Z,11.68
2019-03-01T20:51:44.837Z,11.70
2019-03-01T20:54:14.475Z,11.80
2019-03-01T20:56:44.012Z,11.85
2019-03-01T20:59:15.427Z,11.80
2019-03-01T21:01:45.044Z,11.80
2019-03-01T21:04:14.676Z,11.84
2019-03-01T21:06:44.315Z,11.78
2019-03-01T21:09:13.878Z,11.90
2019-03-01T21:11:43.485Z,11.90
2019-03-01T21:14:13.023Z,11.84
2019-03-01T21:16:44.862Z,11.89
2019-03-01T21:19:13.859Z,11.91
2019-03-01T21:21:43.386Z,11.89
2019-03-01T21:24:13.034Z,11.99
2019-03-01T21:26:42.566Z,11.96
2019-03-01T21:29:13.423Z,11.83
2019-03-01T21:31:43.158Z,11.71
2019-03-01T21:34:14.874Z,11.75
2019-03-01T21:36:44.370Z,11.79
2019-03-01T21:39:14.127Z,11.85
2019-03-01T21:41:44.862Z,11.74
2019-03-01T21:44:15.006Z,11.67
2019-03-01T21:46:44.585Z,11.63
2019-03-01T21:49:14.143Z,11.63
2019-03-01T21:51:43.809Z,11.60
2019-03-01T21:54:16.412Z,11.68
2019-03-01T21:56:55.339Z,11.85
2019-03-01T21:59:17.330Z,11.81
2019-03-01T22:01:47.299Z,11.87
2019-03-01T22:04:16.843Z,11.87
2019-03-01T22:06:46.473Z,11.78
2019-03-01T22:09:16.087Z,11.77
2019-03-01T22:11:48.836Z,11.70
2019-03-01T22:14:16.964Z,11.64
2019-03-01T22:16:46.500Z,11.64
2019-03-01T22:19:16.114Z,11.57
2019-03-01T22:21:45.693Z,11.61
2019-03-01T22:24:15.397Z,11.67
2019-03-01T22:26:46.598Z,11.55
2019-03-01T22:29:16.454Z,11.49
2019-03-01T22:31:46.169Z,11.45
2019-03-01T22:34:15.785Z,11.44
2019-03-01T22:36:45.446Z,11.42
2019-03-01T22:39:16.613Z,11.34
2019-03-01T22:41:46.473Z,11.33
2019-03-01T22:44:16.224Z,11.30
2019-03-01T22:46:45.793Z,11.20
2019-03-01T22:49:15.428Z,11.22
2019-03-01T22:51:45.154Z,11.15
2019-03-01T22:54:17.830Z,11.03
2019-03-01T22:56:48.517Z,10.94
2019-03-01T22:59:17.505Z,10.83
2019-03-01T23:01:49.626Z,10.74
2019-03-01T23:04:19.287Z,10.64
2019-03-01T23:06:51.457Z,10.50
2019-03-01T23:09:20.684Z,10.25
2019-03-01T23:11:50.242Z,10.33
2019-03-01T23:14:19.912Z,10.54
2019-03-01T23:16:50.709Z,10.55
2019-03-01T23:19:20.962Z,10.50
2019-03-01T23:21:50.495Z,10.65
2019-03-01T23:24:20.143Z,10.57
2019-03-01T23:26:49.738Z,10.55
2019-03-01T23:29:20.089Z,10.60
2019-03-01T23:31:49.648Z,10.57
2019-03-01T23:34:19.195Z,10.72
2019-03-01T23:36:48.800Z,10.64
2019-03-01T23:39:21.695Z,10.60
2019-03-01T23:41:49.760Z,10.71
2019-03-01T23:44:19.424Z,10.76
2019-03-01T23:46:48.953Z,10.64
2019-03-01T23:49:20.555Z,10.58
2019-03-01T23:51:50.066Z,10.55
2019-03-01T23:54:19.624Z,10.46
2019-03-01T23:56:49.223Z,10.39
2019-03-01T23:59:18.917Z,10.48
